createdAt,value
2023-03-08T00:00:15.262Z,0.00
2023-03-08T00:01:15.250Z,0.00
2023-03-08T00:02:15.285Z,0.00
2023-03-08T00:03:15.239Z,0.00
2023-03-08T00:04:15.350Z,0.00
2023-03-08T00:05:15.200Z,0.00
2023-03-08T00:06:15.213Z,0.00
2023-03-08T00:07:15.182Z,0.00
2023-03-08T00:08:15.244Z,0.00
2023-03-08T00:09:15.184Z,0.00
2023-03-08T00:10:15.143Z,0.00
2023-03-08T00:11:15.133Z,0.00
2023-03-08T00:12:15.126Z,0.00
2023-03-08T00:13:15.116Z,0.00
2023-03-08T00:14:15.147Z,0.00
2023-03-08T00:15:15.109Z,0.00
2023-03-08T00:16:15.107Z,0.00
2023-03-08T00:17:15.077Z,0.00
2023-03-08T00:18:15.057Z,0.00
2023-03-08T00:19:15.051Z,0.00
2023-03-08T00:20:15.080Z,0.00
2023-03-08T00:21:15.048Z,0.00
2023-03-08T00:22:15.013Z,0.00
2023-03-08T00:23:15.007Z,0.00
2023-03-08T00:24:14.996Z,0.00
2023-03-08T00:25:14.986Z,0.00
2023-03-08T00:26:14.993Z,0.00
2023-03-08T00:27:14.986Z,0.00
2023-03-08T00:28:14.962Z,0.00
2023-03-08T00:29:14.958Z,0.00
2023-03-08T00:30:14.930Z,0.00
2023-03-08T00:31:14.986Z,0.00
2023-03-08T00:32:15.029Z,0.00
2023-03-08T00:33:14.906Z,0.00
2023-03-08T00:34:14.890Z,0.00
2023-03-08T00:35:14.883Z,0.00
2023-03-08T00:36:14.932Z,0.00
2023-03-08T00:37:14.873Z,0.00
2023-03-08T00:38:14.896Z,0.00
2023-03-08T00:39:14.845Z,0.00
2023-03-08T00:40:14.827Z,0.00
2023-03-08T00:41:14.830Z,0.00
2023-03-08T00:42:14.807Z,0.00
2023-03-08T00:43:14.807Z,0.00
2023-03-08T00:44:14.818Z,0.00
2023-03-08T00:45:14.780Z,0.00
2023-03-08T00:46:14.824Z,0.00
2023-03-08T00:47:14.755Z,0.00
2023-03-08T00:48:14.740Z,0.00
2023-03-08T00:49:14.749Z,0.00
2023-03-08T00:50:14.767Z,0.00
2023-03-08T00:51:14.720Z,0.00
2023-03-08T00:52:14.727Z,0.00
2023-03-08T00:53:14.691Z,0.00
2023-03-08T00:54:14.678Z,0.00
2023-03-08T00:55:14.683Z,0.00
2023-03-08T00:56:14.711Z,0.00
2023-03-08T00:57:14.657Z,0.00
2023-03-08T00:58:14.634Z,0.00
2023-03-08T00:59:14.627Z,0.00
2023-03-08T01:00:14.630Z,0.00
2023-03-08T01:01:14.710Z,0.00
2023-03-08T01:02:14.621Z,0.00
2023-03-08T01:03:14.588Z,0.00
2023-03-08T01:04:14.591Z,0.00
2023-03-08T01:05:14.577Z,0.00
2023-03-08T01:06:14.572Z,0.00
2023-03-08T01:07:14.538Z,0.00
2023-03-08T01:08:14.562Z,0.00
2023-03-08T01:09:14.519Z,0.00
2023-03-08T01:10:14.514Z,0.00
2023-03-08T01:11:14.504Z,0.00
2023-03-08T01:12:14.497Z,0.00
2023-03-08T01:13:14.475Z,0.00
2023-03-08T01:14:14.501Z,0.00
2023-03-08T01:15:14.466Z,0.00
2023-03-08T01:16:14.448Z,0.00
2023-03-08T01:17:14.433Z,0.00
2023-03-08T01:18:14.429Z,0.00
2023-03-08T01:19:14.411Z,0.00
2023-03-08T01:20:14.445Z,0.00
2023-03-08T01:21:14.394Z,0.00
2023-03-08T01:22:14.390Z,0.00
2023-03-08T01:23:14.368Z,0.00
2023-03-08T01:24:14.388Z,0.00
2023-03-08T01:25:14.346Z,0.00
2023-03-08T01:26:14.371Z,0.00
2023-03-08T01:27:14.338Z,0.00
2023-03-08T01:28:14.315Z,0.00
2023-03-08T01:29:14.305Z,0.00
2023-03-08T01:30:14.290Z,0.00
2023-03-08T01:31:14.281Z,0.00
2023-03-08T01:32:14.333Z,0.00
2023-03-08T01:33:14.274Z,0.00
2023-03-08T01:34:14.258Z,0.00
2023-03-08T01:35:14.242Z,0.00
2023-03-08T01:36:14.224Z,0.00
2023-03-08T01:37:14.218Z,0.00
2023-03-08T01:38:14.248Z,0.00
2023-03-08T01:39:14.225Z,0.00
2023-03-08T01:40:14.210Z,0.00
2023-03-08T01:41:14.173Z,0.00
2023-03-08T01:42:14.162Z,0.00
2023-03-08T01:43:14.149Z,0.00
2023-03-08T01:44:14.173Z,0.00
2023-03-08T01:45:14.145Z,0.00
2023-03-08T01:46:14.117Z,0.00
2023-03-08T01:47:14.103Z,0.00
2023-03-08T01:48:14.096Z,0.00
2023-03-08T01:49:14.088Z,0.00
2023-03-08T01:50:14.147Z,0.00
2023-03-08T01:51:14.062Z,0.00
2023-03-08T01:52:14.069Z,0.00
2023-03-08T01:53:14.074Z,0.00
2023-03-08T01:54:14.051Z,0.00
2023-03-08T01:55:14.020Z,0.00
2023-03-08T01:56:14.098Z,0.00
2023-03-08T01:57:13.995Z,0.00
2023-03-08T01:58:13.989Z,0.00
2023-03-08T01:59:13.977Z,0.00
2023-03-08T02:00:13.971Z,0.00
2023-03-08T02:01:14.061Z,0.00
2023-03-08T02:02:14.000Z,0.00
2023-03-08T02:03:13.931Z,0.00
2023-03-08T02:04:13.924Z,0.00
2023-03-08T02:05:13.914Z,0.00
2023-03-08T02:06:13.925Z,0.00
2023-03-08T02:07:13.900Z,0.00
2023-03-08T02:08:13.934Z,0.00
2023-03-08T02:09:13.867Z,0.00
2023-03-08T02:10:13.878Z,0.00
2023-03-08T02:11:13.850Z,0.00
2023-03-08T02:12:13.858Z,0.00
2023-03-08T02:13:13.827Z,0.00
2023-03-08T02:14:13.872Z,0.00
2023-03-08T02:15:13.806Z,0.00
2023-03-08T02:16:13.812Z,0.00
2023-03-08T02:17:13.787Z,0.00
2023-03-08T02:18:13.779Z,0.00
2023-03-08T02:19:13.765Z,0.00
2023-03-08T02:20:13.808Z,0.00
2023-03-08T02:21:13.758Z,0.00
2023-03-08T02:22:13.773Z,0.00
2023-03-08T02:23:13.743Z,0.00
2023-03-08T02:24:13.721Z,0.00
2023-03-08T02:25:13.702Z,0.00
2023-03-08T02:26:13.746Z,0.00
2023-03-08T02:27:13.692Z,0.00
2023-03-08T02:28:13.707Z,0.00
2023-03-08T02:29:13.664Z,0.00
2023-03-08T02:30:13.655Z,0.00
2023-03-08T02:31:13.640Z,0.00
2023-03-08T02:32:13.760Z,0.00
2023-03-08T02:33:13.616Z,0.00
2023-03-08T02:34:13.609Z,0.00
2023-03-08T02:35:13.602Z,0.00
2023-03-08T02:36:13.589Z,0.00
2023-03-08T02:37:13.576Z,0.00
2023-03-08T02:38:13.627Z,0.00
2023-03-08T02:39:13.556Z,0.00
2023-03-08T02:40:13.561Z,0.00
2023-03-08T02:41:13.535Z,0.00
2023-03-08T02:42:13.543Z,0.00
2023-03-08T02:43:13.519Z,0.00
2023-03-08T02:44:13.590Z,0.00
2023-03-08T02:45:13.505Z,0.00
2023-03-08T02:46:13.493Z,0.00
2023-03-08T02:47:13.473Z,0.00
2023-03-08T02:48:13.460Z,0.00
2023-03-08T02:49:13.453Z,0.00
2023-03-08T02:50:13.513Z,0.00
2023-03-08T02:51:13.447Z,0.00
2023-03-08T02:52:13.435Z,0.00
2023-03-08T02:53:13.404Z,0.00
2023-03-08T02:54:15.379Z,0.00
2023-03-08T02:55:13.384Z,0.00
2023-03-08T02:56:13.429Z,0.00
2023-03-08T02:57:13.380Z,0.00
2023-03-08T02:58:13.355Z,0.00
2023-03-08T02:59:13.338Z,0.00
2023-03-08T03:00:13.361Z,0.00
2023-03-08T03:01:13.394Z,0.00
2023-03-08T03:02:13.345Z,0.00
2023-03-08T03:03:13.309Z,0.00
2023-03-08T03:04:13.301Z,0.00
2023-03-08T03:05:13.280Z,0.00
2023-03-08T03:06:13.348Z,0.00
2023-03-08T03:07:13.252Z,0.00
2023-03-08T03:08:13.300Z,0.00
2023-03-08T03:09:13.246Z,0.00
2023-03-08T03:10:13.226Z,0.00
2023-03-08T03:11:13.211Z,0.00
2023-03-08T03:12:13.202Z,0.00
2023-03-08T03:13:13.189Z,0.00
2023-03-08T03:14:13.249Z,0.00
2023-03-08T03:15:13.165Z,0.00
2023-03-08T03:16:13.219Z,0.00
2023-03-08T03:17:13.145Z,0.00
2023-03-08T03:18:13.134Z,0.00
2023-03-08T03:19:13.126Z,0.00
2023-03-08T03:20:13.195Z,0.00
2023-03-08T03:21:13.100Z,0.00
2023-03-08T03:22:13.093Z,0.00
2023-03-08T03:23:13.077Z,0.00
2023-03-08T03:24:13.072Z,0.00
2023-03-08T03:25:13.061Z,0.00
2023-03-08T03:26:13.111Z,0.00
2023-03-08T03:27:13.033Z,0.00
2023-03-08T03:28:13.047Z,0.00
2023-03-08T03:29:13.013Z,0.00
2023-03-08T03:30:13.014Z,0.00
2023-03-08T03:31:13.012Z,0.00
2023-03-08T03:32:13.069Z,0.00
2023-03-08T03:33:12.968Z,0.00
2023-03-08T03:34:12.962Z,0.00
2023-03-08T03:35:12.976Z,0.00
2023-03-08T03:36:12.937Z,0.00
2023-03-08T03:37:12.924Z,0.00
2023-03-08T03:38:12.959Z,0.00
2023-03-08T03:39:12.904Z,0.00
2023-03-08T03:40:12.904Z,0.00
2023-03-08T03:41:12.899Z,0.00
2023-03-08T03:42:12.893Z,0.00
2023-03-08T03:43:12.860Z,0.00
2023-03-08T03:44:12.899Z,0.00
2023-03-08T03:45:12.845Z,0.00
2023-03-08T03:46:12.854Z,0.00
2023-03-08T03:47:12.831Z,0.00
2023-03-08T03:48:12.844Z,0.00
2023-03-08T03:49:12.801Z,0.00
2023-03-08T03:50:12.878Z,0.00
2023-03-08T03:51:12.782Z,0.00
2023-03-08T03:52:12.783Z,0.00
2023-03-08T03:53:12.770Z,0.00
2023-03-08T03:54:12.757Z,0.00
2023-03-08T03:55:12.745Z,0.00
2023-03-08T03:56:12.769Z,0.00
2023-03-08T03:57:12.719Z,0.00
2023-03-08T03:58:12.724Z,0.00
2023-03-08T03:59:12.718Z,0.00
2023-03-08T04:00:12.699Z,0.00
2023-03-08T04:01:12.681Z,0.00
2023-03-08T04:02:12.709Z,0.00
2023-03-08T04:03:12.813Z,0.00
2023-03-08T04:04:12.802Z,0.00
2023-03-08T04:05:12.641Z,0.00
2023-03-08T04:06:12.629Z,0.00
2023-03-08T04:07:12.631Z,0.00
2023-03-08T04:08:12.637Z,0.00
2023-03-08T04:09:12.611Z,0.00
2023-03-08T04:10:12.589Z,0.00
2023-03-08T04:11:12.573Z,0.00
2023-03-08T04:12:12.569Z,0.00
2023-03-08T04:13:12.552Z,0.00
2023-03-08T04:14:12.584Z,0.00
2023-03-08T04:15:12.543Z,0.00
2023-03-08T04:16:12.555Z,0.00
2023-03-08T04:17:12.513Z,0.00
2023-03-08T04:18:12.502Z,0.00
2023-03-08T04:19:12.503Z,0.00
2023-03-08T04:20:12.533Z,0.00
2023-03-08T04:21:12.466Z,0.00
2023-03-08T04:22:12.465Z,0.00
2023-03-08T04:23:12.448Z,0.00
2023-03-08T04:24:12.436Z,0.00
2023-03-08T04:25:12.425Z,0.00
2023-03-08T04:26:12.468Z,0.00
2023-03-08T04:27:12.401Z,0.00
2023-03-08T04:28:12.405Z,0.00
2023-03-08T04:29:12.391Z,0.00
2023-03-08T04:30:12.388Z,0.00
2023-03-08T04:31:12.377Z,0.00
2023-03-08T04:32:12.415Z,0.00
2023-03-08T04:33:12.338Z,0.00
2023-03-08T04:34:12.328Z,0.00
2023-03-08T04:35:12.328Z,0.00
2023-03-08T04:36:12.346Z,0.00
2023-03-08T04:37:12.299Z,0.00
2023-03-08T04:38:12.351Z,0.00
2023-03-08T04:39:12.274Z,0.00
2023-03-08T04:40:12.270Z,0.00
2023-03-08T04:41:12.363Z,0.00
2023-03-08T04:42:12.255Z,0.00
2023-03-08T04:43:12.238Z,0.00
2023-03-08T04:44:12.305Z,0.00
2023-03-08T04:45:12.209Z,0.00
2023-03-08T04:46:12.228Z,0.00
2023-03-08T04:47:12.192Z,0.00
2023-03-08T04:48:12.192Z,0.00
2023-03-08T04:49:12.169Z,0.00
2023-03-08T04:50:12.223Z,0.00
2023-03-08T04:51:12.148Z,0.00
2023-03-08T04:52:12.163Z,0.00
2023-03-08T04:53:12.124Z,0.00
2023-03-08T04:54:12.143Z,0.00
2023-03-08T04:55:12.105Z,0.00
2023-03-08T04:56:12.146Z,0.00
2023-03-08T04:57:12.107Z,0.00
2023-03-08T04:58:12.082Z,0.00
2023-03-08T04:59:12.071Z,0.00
2023-03-08T05:00:12.067Z,0.00
2023-03-08T05:01:12.048Z,0.00
2023-03-08T05:02:12.120Z,0.00
2023-03-08T05:03:12.029Z,0.00
2023-03-08T05:04:12.008Z,0.00
2023-03-08T05:05:12.065Z,0.00
2023-03-08T05:06:12.002Z,0.00
2023-03-08T05:07:11.975Z,0.00
2023-03-08T05:08:12.022Z,0.00
2023-03-08T05:09:11.956Z,0.00
2023-03-08T05:10:11.950Z,0.00
2023-03-08T05:11:11.930Z,0.00
2023-03-08T05:12:11.956Z,0.00
2023-03-08T05:13:11.911Z,0.00
2023-03-08T05:14:11.964Z,0.00
2023-03-08T05:15:11.893Z,0.00
2023-03-08T05:16:11.982Z,0.00
2023-03-08T05:17:11.883Z,0.00
2023-03-08T05:18:11.869Z,0.00
2023-03-08T05:19:12.093Z,0.00
2023-03-08T05:20:11.933Z,0.00
2023-03-08T05:21:11.825Z,0.00
2023-03-08T05:22:11.833Z,0.00
2023-03-08T05:23:11.806Z,0.00
2023-03-08T05:24:11.824Z,0.00
2023-03-08T05:25:11.784Z,0.00
2023-03-08T05:26:11.848Z,0.00
2023-03-08T05:27:11.761Z,0.00
2023-03-08T05:28:11.761Z,0.00
2023-03-08T05:29:11.740Z,0.00
2023-03-08T05:30:11.731Z,0.00
2023-03-08T05:31:11.795Z,0.00
2023-03-08T05:32:11.842Z,0.00
2023-03-08T05:33:11.696Z,0.00
2023-03-08T05:34:11.689Z,0.00
2023-03-08T05:35:11.689Z,0.00
2023-03-08T05:36:11.696Z,0.00
2023-03-08T05:37:11.651Z,0.00
2023-03-08T05:38:11.684Z,0.00
2023-03-08T05:39:11.641Z,0.00
2023-03-08T05:40:11.645Z,0.00
2023-03-08T05:41:11.624Z,0.00
2023-03-08T05:42:11.609Z,0.00
2023-03-08T05:43:11.594Z,0.00
2023-03-08T05:44:11.618Z,0.00
2023-03-08T05:45:11.649Z,0.00
2023-03-08T05:46:11.612Z,5.62
2023-03-08T05:47:11.556Z,5.62
2023-03-08T05:48:11.538Z,5.62
2023-03-08T05:49:11.524Z,5.62
2023-03-08T05:50:11.568Z,5.62
2023-03-08T05:51:11.502Z,5.62
2023-03-08T05:52:11.526Z,5.62
2023-03-08T05:53:11.480Z,5.62
2023-03-08T05:54:11.474Z,5.62
2023-03-08T05:55:11.459Z,11.25
2023-03-08T05:56:11.497Z,11.25
2023-03-08T05:57:11.435Z,11.25
2023-03-08T05:58:11.436Z,16.88
2023-03-08T05:59:11.416Z,16.88
2023-03-08T06:00:11.403Z,16.88
2023-03-08T06:01:11.394Z,22.50
2023-03-08T06:02:11.480Z,22.50
2023-03-08T06:03:11.428Z,22.50
2023-03-08T06:04:11.365Z,28.12
2023-03-08T06:05:11.366Z,28.12
2023-03-08T06:06:11.337Z,28.12
2023-03-08T06:07:11.342Z,33.75
2023-03-08T06:08:11.339Z,33.75
2023-03-08T06:09:11.314Z,39.38
2023-03-08T06:10:11.292Z,45.00
2023-03-08T06:11:11.288Z,45.00
2023-03-08T06:12:11.292Z,45.00
2023-03-08T06:13:11.275Z,50.62
2023-03-08T06:14:13.150Z,50.62
2023-03-08T06:15:11.246Z,50.62
2023-03-08T06:16:11.231Z,56.25
2023-03-08T06:17:11.233Z,56.25
2023-03-08T06:18:11.210Z,56.25
2023-03-08T06:19:11.205Z,56.25
2023-03-08T06:20:11.194Z,56.25
2023-03-08T06:21:11.190Z,61.88
2023-03-08T06:22:11.165Z,61.88
2023-03-08T06:23:11.157Z,61.88
2023-03-08T06:24:11.152Z,56.25
2023-03-08T06:25:11.156Z,61.88
2023-03-08T06:26:11.123Z,61.88
2023-03-08T06:27:11.150Z,61.88
2023-03-08T06:28:11.141Z,61.88
2023-03-08T06:29:11.098Z,67.50
2023-03-08T06:30:11.082Z,73.12
2023-03-08T06:31:11.144Z,78.75
2023-03-08T06:32:11.104Z,84.38
2023-03-08T06:33:11.062Z,90.00
2023-03-08T06:34:11.038Z,90.00
2023-03-08T06:35:11.037Z,90.00
2023-03-08T06:36:11.018Z,95.62
2023-03-08T06:37:11.017Z,95.62
2023-03-08T06:38:10.998Z,101.25
2023-03-08T06:39:11.003Z,106.88
2023-03-08T06:40:10.978Z,112.50
2023-03-08T06:41:10.978Z,112.50
2023-03-08T06:42:10.966Z,112.50
2023-03-08T06:43:10.952Z,106.88
2023-03-08T06:44:10.954Z,101.25
2023-03-08T06:45:10.926Z,101.25
2023-03-08T06:46:10.967Z,101.25
2023-03-08T06:47:10.940Z,101.25
2023-03-08T06:48:10.893Z,106.88
2023-03-08T06:49:10.885Z,106.88
2023-03-08T06:50:10.905Z,106.88
2023-03-08T06:51:10.866Z,101.25
2023-03-08T06:52:10.850Z,95.62
2023-03-08T06:53:10.860Z,95.62
2023-03-08T06:54:10.831Z,95.62
2023-03-08T06:55:10.824Z,95.62
2023-03-08T06:56:10.819Z,101.25
2023-03-08T06:57:10.800Z,101.25
2023-03-08T06:58:10.803Z,106.88
2023-03-08T06:59:10.784Z,106.88
2023-03-08T07:00:10.780Z,101.25
2023-03-08T07:01:10.863Z,101.25
2023-03-08T07:02:10.775Z,101.25
2023-03-08T07:03:10.734Z,95.62
2023-03-08T07:04:10.806Z,95.62
2023-03-08T07:05:10.709Z,90.00
2023-03-08T07:06:10.697Z,78.75
2023-03-08T07:07:10.768Z,73.12
2023-03-08T07:08:10.684Z,73.12
2023-03-08T07:09:10.701Z,73.12
2023-03-08T07:10:10.654Z,78.75
2023-03-08T07:11:10.641Z,90.00
2023-03-08T07:12:10.640Z,101.25
2023-03-08T07:13:10.636Z,112.50
2023-03-08T07:14:10.607Z,123.75
2023-03-08T07:15:10.634Z,129.38
2023-03-08T07:16:10.693Z,135.00
2023-03-08T07:17:10.578Z,146.25
2023-03-08T07:18:10.577Z,157.50
2023-03-08T07:19:10.556Z,168.75
2023-03-08T07:20:10.544Z,185.62
2023-03-08T07:21:10.571Z,191.25
2023-03-08T07:22:10.527Z,196.88
2023-03-08T07:23:10.519Z,191.25
2023-03-08T07:24:10.511Z,180.00
2023-03-08T07:25:10.492Z,163.12
2023-03-08T07:26:10.477Z,151.88
2023-03-08T07:27:10.539Z,140.62
2023-03-08T07:28:10.459Z,140.62
2023-03-08T07:29:10.445Z,146.25
2023-03-08T07:30:10.434Z,157.50
2023-03-08T07:31:10.426Z,174.38
2023-03-08T07:32:10.643Z,191.25
2023-03-08T07:33:10.469Z,208.12
2023-03-08T07:34:10.391Z,230.62
2023-03-08T07:35:10.381Z,241.88
2023-03-08T07:36:10.445Z,247.50
2023-03-08T07:37:10.382Z,253.12
2023-03-08T07:38:10.391Z,258.75
2023-03-08T07:39:10.342Z,253.12
2023-03-08T07:40:10.328Z,247.50
2023-03-08T07:41:10.325Z,225.00
2023-03-08T07:42:10.313Z,213.75
2023-03-08T07:43:10.310Z,208.12
2023-03-08T07:44:10.309Z,225.00
2023-03-08T07:45:10.280Z,247.50
2023-03-08T07:46:10.300Z,253.12
2023-03-08T07:47:10.258Z,253.12
2023-03-08T07:48:10.277Z,253.12
2023-03-08T07:49:10.251Z,247.50
2023-03-08T07:50:10.272Z,236.25
2023-03-08T07:51:10.303Z,225.00
2023-03-08T07:52:10.232Z,213.75
2023-03-08T07:53:10.202Z,208.12
2023-03-08T07:54:10.216Z,202.50
2023-03-08T07:55:10.177Z,191.25
2023-03-08T07:56:10.248Z,185.62
2023-03-08T07:57:10.156Z,180.00
2023-03-08T07:58:10.146Z,174.38
2023-03-08T07:59:10.140Z,174.38
2023-03-08T08:00:10.150Z,168.75
2023-03-08T08:01:10.118Z,168.75
2023-03-08T08:02:10.121Z,168.75
2023-03-08T08:03:10.112Z,163.12
2023-03-08T08:04:10.201Z,168.75
2023-03-08T08:05:10.139Z,174.38
2023-03-08T08:06:10.080Z,168.75
2023-03-08T08:07:10.053Z,163.12
2023-03-08T08:08:10.081Z,157.50
2023-03-08T08:09:10.048Z,151.88
2023-03-08T08:10:10.016Z,157.50
2023-03-08T08:11:10.007Z,168.75
2023-03-08T08:12:10.011Z,185.62
2023-03-08T08:13:09.985Z,202.50
2023-03-08T08:14:09.989Z,208.12
2023-03-08T08:15:09.961Z,208.12
2023-03-08T08:16:10.057Z,208.12
2023-03-08T08:17:09.939Z,219.38
2023-03-08T08:18:09.935Z,230.62
2023-03-08T08:19:09.915Z,241.88
2023-03-08T08:20:09.940Z,236.25
2023-03-08T08:21:09.893Z,230.62
2023-03-08T08:22:09.881Z,225.00
2023-03-08T08:23:09.872Z,230.62
2023-03-08T08:24:09.862Z,230.62
2023-03-08T08:25:09.863Z,225.00
2023-03-08T08:26:09.867Z,196.88
2023-03-08T08:27:09.829Z,208.12
2023-03-08T08:28:09.815Z,236.25
2023-03-08T08:29:09.803Z,270.00
2023-03-08T08:30:09.788Z,286.88
2023-03-08T08:31:09.883Z,309.38
2023-03-08T08:32:09.828Z,320.62
2023-03-08T08:33:09.760Z,315.00
2023-03-08T08:34:09.751Z,326.25
2023-03-08T08:35:09.750Z,320.62
2023-03-08T08:36:09.759Z,315.00
2023-03-08T08:37:09.726Z,495.00
2023-03-08T08:38:09.743Z,348.75
2023-03-08T08:39:09.702Z,343.12
2023-03-08T08:40:09.691Z,303.75
2023-03-08T08:41:09.671Z,303.75
2023-03-08T08:42:09.658Z,303.75
2023-03-08T08:43:09.689Z,337.50
2023-03-08T08:44:09.684Z,337.50
2023-03-08T08:45:09.627Z,326.25
2023-03-08T08:46:09.664Z,382.50
2023-03-08T08:47:09.609Z,466.88
2023-03-08T08:48:09.601Z,585.00
2023-03-08T08:49:09.583Z,405.00
2023-03-08T08:50:09.639Z,360.00
2023-03-08T08:51:09.562Z,382.50
2023-03-08T08:52:09.584Z,433.12
2023-03-08T08:53:09.577Z,500.62
2023-03-08T08:54:09.580Z,1198.12
2023-03-08T08:55:09.518Z,427.50
2023-03-08T08:56:17.084Z,405.00
2023-03-08T08:57:10.520Z,410.62
2023-03-08T08:58:09.481Z,511.88
2023-03-08T08:59:09.473Z,523.12
2023-03-08T09:00:09.466Z,517.50
2023-03-08T09:01:09.504Z,500.62
2023-03-08T09:02:09.505Z,461.25
2023-03-08T09:03:09.430Z,433.12
2023-03-08T09:04:09.488Z,416.25
2023-03-08T09:05:09.445Z,483.75
2023-03-08T09:06:09.398Z,585.00
2023-03-08T09:07:09.397Z,528.75
2023-03-08T09:08:09.414Z,568.12
2023-03-08T09:09:09.365Z,596.25
2023-03-08T09:10:09.372Z,1035.00
2023-03-08T09:11:09.370Z,596.25
2023-03-08T09:12:09.337Z,922.50
2023-03-08T09:13:09.465Z,708.75
2023-03-08T09:14:09.342Z,1057.50
2023-03-08T09:15:09.302Z,675.00
2023-03-08T09:16:09.325Z,720.00
2023-03-08T09:17:09.288Z,720.00
2023-03-08T09:18:09.267Z,787.50
2023-03-08T09:19:09.291Z,742.50
2023-03-08T09:20:09.266Z,568.12
2023-03-08T09:21:09.237Z,551.25
2023-03-08T09:22:09.225Z,511.88
2023-03-08T09:23:09.278Z,506.25
2023-03-08T09:24:09.226Z,573.75
2023-03-08T09:25:09.219Z,663.75
2023-03-08T09:26:09.195Z,1063.12
2023-03-08T09:27:09.180Z,742.50
2023-03-08T09:28:09.162Z,1411.88
2023-03-08T09:29:09.181Z,2086.88
2023-03-08T09:30:09.144Z,618.75
2023-03-08T09:31:09.165Z,483.75
2023-03-08T09:32:09.336Z,528.75
2023-03-08T09:33:09.110Z,1642.50
2023-03-08T09:34:09.677Z,2379.38
2023-03-08T09:35:09.104Z,1918.12
2023-03-08T09:36:09.080Z,1080.00
2023-03-08T09:37:09.100Z,832.50
2023-03-08T09:38:09.064Z,916.88
2023-03-08T09:39:09.117Z,1057.50
2023-03-08T09:40:09.059Z,1170.00
2023-03-08T09:41:09.043Z,1575.00
2023-03-08T09:42:09.023Z,821.25
2023-03-08T09:43:09.035Z,849.38
2023-03-08T09:44:08.995Z,1023.75
2023-03-08T09:45:08.984Z,697.50
2023-03-08T09:46:09.007Z,697.50
2023-03-08T09:47:08.966Z,652.50
2023-03-08T09:48:09.044Z,680.62
2023-03-08T09:49:08.970Z,2008.12
2023-03-08T09:50:08.930Z,1220.62
2023-03-08T09:51:08.928Z,1406.25
2023-03-08T09:52:08.907Z,843.75
2023-03-08T09:53:08.906Z,759.38
2023-03-08T09:54:08.891Z,804.38
2023-03-08T09:55:09.000Z,1102.50
2023-03-08T09:56:08.909Z,736.88
2023-03-08T09:57:08.916Z,1203.75
2023-03-08T09:58:08.839Z,1366.88
2023-03-08T09:59:08.823Z,978.75
2023-03-08T10:00:08.829Z,950.62
2023-03-08T10:01:08.890Z,1113.75
2023-03-08T10:02:08.819Z,2143.12
2023-03-08T10:03:08.859Z,1108.12
2023-03-08T10:04:08.790Z,894.38
2023-03-08T10:05:13.974Z,1012.50
2023-03-08T10:06:09.750Z,1614.38
2023-03-08T10:07:08.746Z,1445.62
2023-03-08T10:08:08.745Z,2351.25
2023-03-08T10:09:08.710Z,1850.62
2023-03-08T10:10:08.713Z,1822.50
2023-03-08T10:11:08.696Z,2413.12
2023-03-08T10:12:13.171Z,1108.12
2023-03-08T10:13:08.693Z,1170.00
2023-03-08T10:14:08.657Z,1884.38
2023-03-08T10:15:08.651Z,2362.50
2023-03-08T10:16:08.644Z,2323.12
2023-03-08T10:17:08.625Z,2407.50
2023-03-08T10:18:08.610Z,2486.25
2023-03-08T10:19:08.632Z,2542.50
2023-03-08T10:20:08.643Z,2306.25
2023-03-08T10:21:08.582Z,1873.12
2023-03-08T10:22:08.582Z,2115.00
2023-03-08T10:23:08.559Z,2368.12
2023-03-08T10:24:08.567Z,2356.88
2023-03-08T10:25:08.550Z,2193.75
2023-03-08T10:26:08.522Z,2115.00
2023-03-08T10:27:08.516Z,1890.00
2023-03-08T10:28:08.622Z,2182.50
2023-03-08T10:29:08.495Z,2086.88
2023-03-08T10:30:08.493Z,2013.75
2023-03-08T10:31:08.554Z,2435.62
2023-03-08T10:32:08.522Z,2295.00
2023-03-08T10:33:08.455Z,2497.50
2023-03-08T10:34:08.441Z,2458.12
2023-03-08T10:35:08.440Z,2379.38
2023-03-08T10:36:08.481Z,2300.62
2023-03-08T10:37:08.466Z,2176.88
2023-03-08T10:38:08.394Z,2165.62
2023-03-08T10:39:08.417Z,2486.25
2023-03-08T10:40:08.375Z,2306.25
2023-03-08T10:41:08.366Z,2131.88
2023-03-08T10:42:08.360Z,2098.12
2023-03-08T10:43:08.356Z,1923.75
2023-03-08T10:44:08.354Z,1822.50
2023-03-08T10:45:08.335Z,1991.25
2023-03-08T10:46:08.361Z,1923.75
2023-03-08T10:47:08.316Z,1996.88
2023-03-08T10:48:08.287Z,1828.12
2023-03-08T10:49:08.306Z,1755.00
2023-03-08T10:50:08.278Z,1423.12
2023-03-08T10:51:08.267Z,1366.88
2023-03-08T10:52:08.255Z,1316.25
2023-03-08T10:53:08.240Z,1389.38
2023-03-08T10:54:08.219Z,1299.38
2023-03-08T10:55:08.235Z,1181.25
2023-03-08T10:56:08.267Z,1288.12
2023-03-08T10:57:08.193Z,1350.00
2023-03-08T10:58:08.188Z,1316.25
2023-03-08T10:59:08.169Z,1383.75
2023-03-08T11:00:08.186Z,1372.50
2023-03-08T11:01:08.173Z,1451.25
2023-03-08T11:02:08.145Z,1726.88
2023-03-08T11:03:08.131Z,1901.25
2023-03-08T11:04:08.114Z,1861.88
2023-03-08T11:05:08.105Z,1777.50
2023-03-08T11:06:08.091Z,1760.62
2023-03-08T11:07:08.108Z,1783.12
2023-03-08T11:08:08.072Z,1940.62
2023-03-08T11:09:08.062Z,1766.25
2023-03-08T11:10:08.047Z,1580.62
2023-03-08T11:11:08.042Z,1676.25
2023-03-08T11:12:08.066Z,1788.75
2023-03-08T11:13:08.048Z,1648.12
2023-03-08T11:14:08.006Z,1822.50
2023-03-08T11:15:08.055Z,2064.38
2023-03-08T11:16:08.129Z,2013.75
2023-03-08T11:17:08.010Z,1884.38
2023-03-08T11:18:07.960Z,1816.88
2023-03-08T11:19:08.040Z,1901.25
2023-03-08T11:20:07.951Z,1243.12
2023-03-08T11:21:07.945Z,1951.88
2023-03-08T11:22:07.970Z,1974.38
2023-03-08T11:23:07.920Z,1867.50
2023-03-08T11:24:07.957Z,1805.62
2023-03-08T11:25:07.908Z,1642.50
2023-03-08T11:26:07.878Z,1091.25
2023-03-08T11:27:07.937Z,1631.25
2023-03-08T11:28:07.928Z,1715.62
2023-03-08T11:29:07.880Z,1676.25
2023-03-08T11:30:07.831Z,1676.25
2023-03-08T11:31:07.873Z,1738.12
2023-03-08T11:32:08.018Z,1749.38
2023-03-08T11:33:08.014Z,1659.38
2023-03-08T11:34:07.898Z,911.25
2023-03-08T11:35:07.781Z,793.12
2023-03-08T11:36:07.863Z,759.38
2023-03-08T11:37:07.783Z,742.50
2023-03-08T11:38:07.742Z,720.00
2023-03-08T11:39:07.734Z,686.25
2023-03-08T11:40:07.734Z,691.88
2023-03-08T11:41:07.723Z,691.88
2023-03-08T11:42:07.709Z,669.38
2023-03-08T11:43:07.724Z,663.75
2023-03-08T11:44:07.686Z,680.62
2023-03-08T11:45:07.678Z,714.38
2023-03-08T11:46:07.712Z,753.75
2023-03-08T11:47:07.661Z,871.88
2023-03-08T11:48:07.673Z,916.88
2023-03-08T11:49:07.667Z,933.75
2023-03-08T11:50:07.613Z,826.88
2023-03-08T11:51:07.619Z,900.00
2023-03-08T11:52:07.592Z,810.00
2023-03-08T11:53:07.584Z,1316.25
2023-03-08T11:54:07.572Z,928.12
2023-03-08T11:55:07.647Z,922.50
2023-03-08T11:56:07.545Z,911.25
2023-03-08T11:57:07.552Z,883.12
2023-03-08T11:58:07.526Z,832.50
2023-03-08T11:59:07.518Z,821.25
2023-03-08T12:00:07.502Z,815.62
2023-03-08T12:01:07.524Z,815.62
2023-03-08T12:02:07.487Z,1198.12
2023-03-08T12:03:07.516Z,1237.50
2023-03-08T12:04:07.654Z,1665.00
2023-03-08T12:05:07.507Z,1586.25
2023-03-08T12:06:16.185Z,1496.25
2023-03-08T12:07:08.551Z,1642.50
2023-03-08T12:08:07.458Z,1350.00
2023-03-08T12:09:07.463Z,1546.88
2023-03-08T12:10:07.420Z,1530.00
2023-03-08T12:11:07.389Z,1445.62
2023-03-08T12:12:07.387Z,1501.88
2023-03-08T12:13:07.398Z,1507.50
2023-03-08T12:14:07.354Z,1490.62
2023-03-08T12:15:07.411Z,1507.50
2023-03-08T12:16:07.412Z,1507.50
2023-03-08T12:17:07.505Z,1490.62
2023-03-08T12:18:07.319Z,1524.38
2023-03-08T12:19:07.310Z,1620.00
2023-03-08T12:20:07.312Z,1608.75
2023-03-08T12:21:07.283Z,1541.25
2023-03-08T12:22:07.260Z,1316.25
2023-03-08T12:23:07.295Z,1456.88
2023-03-08T12:24:07.295Z,1372.50
2023-03-08T12:25:07.262Z,1366.88
2023-03-08T12:26:07.213Z,1226.25
2023-03-08T12:27:07.208Z,1254.38
2023-03-08T12:28:07.242Z,1361.25
2023-03-08T12:29:07.200Z,1406.25
2023-03-08T12:30:07.204Z,1366.88
2023-03-08T12:31:18.163Z,1383.75
2023-03-08T12:32:08.378Z,1383.75
2023-03-08T12:33:07.394Z,1485.00
2023-03-08T12:34:07.142Z,1411.88
2023-03-08T12:35:07.119Z,1485.00
2023-03-08T12:36:07.302Z,1451.25
2023-03-08T12:37:07.122Z,1507.50
2023-03-08T12:38:07.108Z,1507.50
2023-03-08T12:39:07.146Z,1496.25
2023-03-08T12:40:07.100Z,1479.38
2023-03-08T12:41:07.260Z,1507.50
2023-03-08T12:42:07.091Z,1406.25
2023-03-08T12:43:07.031Z,1479.38
2023-03-08T12:44:07.022Z,1462.50
2023-03-08T12:45:07.023Z,1372.50
2023-03-08T12:46:07.068Z,1260.00
2023-03-08T12:47:06.987Z,1518.75